createdAt,value
2023-03-17T00:00:26.682Z,19.85
2023-03-17T00:02:54.612Z,23.58
2023-03-17T00:05:24.300Z,20.25
2023-03-17T00:07:53.010Z,19.90
2023-03-17T00:10:22.653Z,24.23
2023-03-17T00:12:51.389Z,18.75
2023-03-17T00:15:20.487Z,20.88
2023-03-17T00:17:50.109Z,20.95
2023-03-17T00:20:23.975Z,18.50
2023-03-17T00:22:51.879Z,21.10
2023-03-17T00:25:24.836Z,20.85
2023-03-17T00:27:53.371Z,23.70
2023-03-17T00:30:22.614Z,20.65
2023-03-17T00:32:53.799Z,19.52
2023-03-17T00:35:23.868Z,20.00
2023-03-17T00:37:53.572Z,20.10
2023-03-17T00:40:23.161Z,21.77
2023-03-17T00:42:52.199Z,21.63
2023-03-17T00:45:21.280Z,20.55
2023-03-17T00:47:49.958Z,20.08
2023-03-17T00:50:22.096Z,21.77
2023-03-17T00:52:50.463Z,21.63
2023-03-17T00:55:18.460Z,20.63
2023-03-17T00:57:46.458Z,19.27
2023-03-17T01:00:22.945Z,19.73
2023-03-17T01:02:51.333Z,21.95
2023-03-17T01:05:20.980Z,21.10
2023-03-17T01:07:52.881Z,21.90
2023-03-17T01:10:22.507Z,21.58
2023-03-17T01:12:51.633Z,20.52
2023-03-17T01:15:19.858Z,27.70
2023-03-17T01:17:47.801Z,20.17
2023-03-17T01:20:17.733Z,21.42
2023-03-17T01:22:46.947Z,19.60
2023-03-17T01:25:14.906Z,21.05
2023-03-17T01:27:42.897Z,23.10
2023-03-17T01:30:22.435Z,22.95
2023-03-17T01:32:51.035Z,21.75
2023-03-17T01:35:19.612Z,20.48
2023-03-17T01:37:48.883Z,22.15
2023-03-17T01:40:19.085Z,20.08
2023-03-17T01:42:54.178Z,20.60
2023-03-17T01:45:59.781Z,21.38
2023-03-17T01:48:29.024Z,24.27
2023-03-17T01:50:56.918Z,21.25
2023-03-17T01:53:26.141Z,21.17
2023-03-17T01:55:54.781Z,22.65
2023-03-17T01:58:24.126Z,23.08
2023-03-17T02:00:52.125Z,20.45
2023-03-17T02:03:20.063Z,20.75
2023-03-17T02:05:48.537Z,19.65
2023-03-17T02:08:16.541Z,20.15
2023-03-17T02:10:46.294Z,20.65
2023-03-17T02:13:14.414Z,19.73
2023-03-17T02:15:42.981Z,19.48
2023-03-17T02:18:11.552Z,22.20
2023-03-17T02:21:21.878Z,21.58
2023-03-17T02:23:51.300Z,21.30
2023-03-17T02:26:19.214Z,19.70
2023-03-17T02:28:47.151Z,18.38
2023-03-17T02:31:15.567Z,20.15
2023-03-17T02:33:44.923Z,19.30
2023-03-17T02:36:12.825Z,19.50
2023-03-17T02:38:41.190Z,19.40
2023-03-17T02:41:10.606Z,19.60
2023-03-17T02:43:41.315Z,18.95
2023-03-17T02:46:09.303Z,19.92
2023-03-17T02:48:37.999Z,17.83
2023-03-17T02:51:06.120Z,18.77
2023-03-17T02:53:34.022Z,20.35
2023-03-17T02:56:02.126Z,17.88
2023-03-17T02:58:31.419Z,19.10
2023-03-17T03:00:59.339Z,18.60
2023-03-17T03:03:27.593Z,20.75
2023-03-17T03:05:55.442Z,20.80
2023-03-17T03:08:23.340Z,18.90
2023-03-17T03:10:51.223Z,21.35
2023-03-17T03:13:19.140Z,20.10
2023-03-17T03:15:48.613Z,19.92
2023-03-17T03:18:16.543Z,18.17
2023-03-17T03:20:45.005Z,21.02
2023-03-17T03:23:12.903Z,19.98
2023-03-17T03:25:40.846Z,18.73
2023-03-17T03:28:09.072Z,20.25
2023-03-17T03:30:37.407Z,19.85
2023-03-17T03:33:06.857Z,20.83
2023-03-17T03:35:35.385Z,19.63
2023-03-17T03:38:03.399Z,21.55
2023-03-17T03:40:31.788Z,20.23
2023-03-17T03:43:00.475Z,18.48
2023-03-17T03:45:29.229Z,20.67
2023-03-17T03:47:57.134Z,19.00
2023-03-17T03:50:26.354Z,21.10
2023-03-17T03:52:54.212Z,17.52
2023-03-17T03:55:22.120Z,19.48
2023-03-17T03:57:49.982Z,19.42
2023-03-17T04:00:18.922Z,18.30
2023-03-17T04:02:47.066Z,20.90
2023-03-17T04:05:15.503Z,18.88
2023-03-17T04:07:44.874Z,19.35
2023-03-17T04:10:13.007Z,18.45
2023-03-17T04:12:41.135Z,18.90
2023-03-17T04:15:10.613Z,18.50
2023-03-17T04:17:38.557Z,18.13
2023-03-17T04:20:07.603Z,18.38
2023-03-17T04:22:35.466Z,18.33
2023-03-17T04:25:05.547Z,18.83
2023-03-17T04:27:33.414Z,18.55
2023-03-17T04:30:01.557Z,21.42
2023-03-17T04:32:29.518Z,18.55
2023-03-17T04:34:57.878Z,19.20
2023-03-17T04:37:25.863Z,18.08
2023-03-17T04:39:55.183Z,18.80
2023-03-17T04:42:24.458Z,18.60
2023-03-17T04:44:52.325Z,18.88
2023-03-17T04:47:20.194Z,17.50
2023-03-17T04:49:48.071Z,17.25
2023-03-17T04:52:15.986Z,17.08
2023-03-17T04:54:43.983Z,17.60
2023-03-17T04:57:12.235Z,20.48
2023-03-17T04:59:41.475Z,17.88
2023-03-17T05:02:09.384Z,18.15
2023-03-17T05:04:37.638Z,20.58
2023-03-17T05:07:05.679Z,16.67
2023-03-17T05:09:33.567Z,17.90
2023-03-17T05:12:01.660Z,17.33
2023-03-17T05:14:29.673Z,19.02
2023-03-17T05:16:58.925Z,18.38
2023-03-17T05:19:26.925Z,16.40
2023-03-17T05:21:54.848Z,16.77
2023-03-17T05:24:22.717Z,17.08
2023-03-17T05:26:50.667Z,17.58
2023-03-17T05:29:18.535Z,20.13
2023-03-17T05:31:46.396Z,16.95
2023-03-17T05:34:16.001Z,18.55
2023-03-17T05:36:44.629Z,17.02
2023-03-17T05:39:14.493Z,17.50
2023-03-17T05:41:42.640Z,17.60
2023-03-17T05:44:10.615Z,17.85
2023-03-17T05:46:38.475Z,16.98
2023-03-17T05:49:06.380Z,16.02
2023-03-17T05:51:37.027Z,17.27
2023-03-17T05:54:05.105Z,16.98
2023-03-17T05:56:33.699Z,17.05
2023-03-17T05:59:02.344Z,16.38
2023-03-17T06:01:30.920Z,17.85
2023-03-17T06:04:00.910Z,20.40
2023-03-17T06:06:28.878Z,18.08
2023-03-17T06:08:58.136Z,18.30
2023-03-17T06:11:26.689Z,17.90
2023-03-17T06:13:54.662Z,16.48
2023-03-17T06:16:22.891Z,20.38
2023-03-17T06:18:50.769Z,17.42
2023-03-17T06:21:18.656Z,16.77
2023-03-17T06:23:46.571Z,20.88
2023-03-17T06:26:15.900Z,18.35
2023-03-17T06:28:43.766Z,17.42
2023-03-17T06:31:12.021Z,23.85
2023-03-17T06:33:39.917Z,15.98
2023-03-17T06:36:08.833Z,56.53
2023-03-17T06:38:36.803Z,126.70
2023-03-17T06:41:04.769Z,66.13
2023-03-17T06:43:34.053Z,104.40
2023-03-17T06:46:02.273Z,94.47
2023-03-17T06:48:30.208Z,103.43
2023-03-17T06:50:58.133Z,113.32
2023-03-17T06:53:26.154Z,120.95
2023-03-17T06:55:54.104Z,102.30
2023-03-17T06:58:21.993Z,94.25
2023-03-17T07:00:53.981Z,74.45
2023-03-17T07:03:22.497Z,71.20
2023-03-17T07:05:50.371Z,75.82
2023-03-17T07:08:18.389Z,65.22
2023-03-17T07:10:46.370Z,59.20
2023-03-17T07:13:14.678Z,62.30
2023-03-17T07:15:42.958Z,71.88
2023-03-17T07:18:12.445Z,51.15
2023-03-17T07:20:40.945Z,68.40
2023-03-17T07:23:10.805Z,53.33
2023-03-17T07:25:39.225Z,65.40
2023-03-17T07:28:07.098Z,49.25
2023-03-17T07:30:35.010Z,57.00
2023-03-17T07:33:04.057Z,51.80
2023-03-17T07:35:34.646Z,45.58
2023-03-17T07:38:02.984Z,49.15
2023-03-17T07:40:34.184Z,45.67
2023-03-17T07:43:04.557Z,49.38
2023-03-17T07:45:33.444Z,48.38
2023-03-17T07:48:01.837Z,52.03
2023-03-17T07:50:29.836Z,42.85
2023-03-17T07:52:59.078Z,40.10
2023-03-17T07:55:27.344Z,42.08
2023-03-17T07:57:55.281Z,44.85
2023-03-17T08:00:23.591Z,42.88
2023-03-17T08:03:06.915Z,44.17
2023-03-17T08:05:37.110Z,44.30
2023-03-17T08:08:06.958Z,45.15
2023-03-17T08:10:35.387Z,41.13
2023-03-17T08:13:03.862Z,37.35
2023-03-17T08:15:32.261Z,41.35
2023-03-17T08:18:01.017Z,39.63
2023-03-17T08:20:29.871Z,40.95
2023-03-17T08:22:58.040Z,42.95
2023-03-17T08:25:27.354Z,36.47
2023-03-17T08:27:55.880Z,36.40
2023-03-17T08:30:23.819Z,32.88
2023-03-17T08:32:52.325Z,33.08
2023-03-17T08:35:20.848Z,35.63
2023-03-17T08:37:48.855Z,33.42
2023-03-17T08:40:17.986Z,32.53
2023-03-17T08:42:48.141Z,31.08
2023-03-17T08:45:16.798Z,35.30
2023-03-17T08:47:44.759Z,30.42
2023-03-17T08:50:16.702Z,30.33
2023-03-17T08:52:44.971Z,28.70
2023-03-17T08:55:13.056Z,35.90
2023-03-17T08:57:40.999Z,48.40
2023-03-17T09:00:11.923Z,65.13
2023-03-17T09:02:39.917Z,64.40
2023-03-17T09:05:08.171Z,60.63
2023-03-17T09:07:36.539Z,64.15
2023-03-17T09:10:05.537Z,70.95
2023-03-17T09:12:34.315Z,72.30
2023-03-17T09:15:02.852Z,64.28
2023-03-17T09:17:32.085Z,67.30
2023-03-17T09:20:00.444Z,67.55
2023-03-17T09:22:28.397Z,72.40
2023-03-17T09:24:56.311Z,61.78
2023-03-17T09:27:24.284Z,56.65
2023-03-17T09:29:52.185Z,61.28
2023-03-17T09:32:20.080Z,63.33
2023-03-17T09:34:51.481Z,48.33
2023-03-17T09:37:19.552Z,56.60
2023-03-17T09:39:47.471Z,48.92
2023-03-17T09:42:21.357Z,52.25
2023-03-17T09:45:03.250Z,47.35
2023-03-17T09:47:55.954Z,45.25
2023-03-17T09:50:30.603Z,47.30
2023-03-17T09:52:58.712Z,45.55
2023-03-17T09:55:28.629Z,50.28
2023-03-17T09:57:56.962Z,45.17
2023-03-17T10:00:29.104Z,45.42
2023-03-17T10:02:57.866Z,44.22
2023-03-17T10:05:26.855Z,43.90
2023-03-17T10:08:04.318Z,37.58
2023-03-17T10:10:36.622Z,42.90
2023-03-17T10:13:08.444Z,38.92
2023-03-17T10:15:38.388Z,34.53
2023-03-17T10:18:10.872Z,39.05
2023-03-17T10:20:39.931Z,36.50
2023-03-17T10:23:09.370Z,32.03
2023-03-17T10:25:37.496Z,38.10
2023-03-17T10:28:09.176Z,37.53
2023-03-17T10:30:37.297Z,33.22
2023-03-17T10:33:07.194Z,31.95
2023-03-17T10:35:36.512Z,31.02
2023-03-17T10:38:15.848Z,34.08
2023-03-17T10:40:47.751Z,31.77
2023-03-17T10:43:18.965Z,34.20
2023-03-17T10:45:48.697Z,26.58
2023-03-17T10:48:18.883Z,27.27
2023-03-17T10:50:49.294Z,27.70
2023-03-17T10:53:28.058Z,28.60
2023-03-17T10:55:58.710Z,30.35
2023-03-17T10:58:37.345Z,29.23
2023-03-17T11:01:07.720Z,28.33
2023-03-17T11:03:38.746Z,25.65
2023-03-17T11:06:08.521Z,22.58
2023-03-17T11:08:39.723Z,23.08
2023-03-17T11:11:10.186Z,26.00
2023-03-17T11:13:38.253Z,20.92
2023-03-17T11:16:10.617Z,22.63
2023-03-17T11:18:39.100Z,24.52
2023-03-17T11:21:08.141Z,22.15
2023-03-17T11:24:02.211Z,22.08
2023-03-17T11:26:49.762Z,24.20
2023-03-17T11:29:23.726Z,18.73
2023-03-17T11:31:57.349Z,18.67
2023-03-17T11:34:31.188Z,22.63
2023-03-17T11:37:02.363Z,22.17
2023-03-17T11:39:33.989Z,21.40
2023-03-17T11:42:07.303Z,18.70
2023-03-17T11:45:02.608Z,19.85
2023-03-17T11:47:42.864Z,20.40
2023-03-17T11:50:18.006Z,18.75
2023-03-17T11:52:53.202Z,17.60
2023-03-17T11:55:23.523Z,17.88
2023-03-17T11:57:54.764Z,20.10
2023-03-17T12:00:26.435Z,20.55
2023-03-17T12:02:56.297Z,16.63
2023-03-17T12:05:25.228Z,17.30
2023-03-17T12:07:54.921Z,17.10
2023-03-17T12:10:25.622Z,18.13
2023-03-17T12:12:55.917Z,15.52
2023-03-17T12:15:29.339Z,16.60
2023-03-17T12:17:58.698Z,18.45
2023-03-17T12:20:30.919Z,17.17
2023-03-17T12:23:00.270Z,15.88
2023-03-17T12:25:32.688Z,15.40
2023-03-17T12:28:02.414Z,20.92
2023-03-17T12:30:33.118Z,15.48
2023-03-17T12:33:07.894Z,15.23
2023-03-17T12:35:37.603Z,14.68
2023-03-17T12:38:08.984Z,14.48
2023-03-17T12:40:41.802Z,13.13
2023-03-17T12:43:54.006Z,15.43
2023-03-17T12:46:41.876Z,15.32
2023-03-17T12:49:33.716Z,15.82
2023-03-17T12:52:17.879Z,14.23
2023-03-17T12:54:46.624Z,12.85
2023-03-17T12:57:18.496Z,15.02
2023-03-17T12:59:47.780Z,12.07
2023-03-17T13:02:18.399Z,15.02
2023-03-17T13:04:53.592Z,14.32
2023-03-17T13:07:23.295Z,12.15
2023-03-17T13:09:53.103Z,11.73
2023-03-17T13:13:03.666Z,13.80
2023-03-17T13:15:54.574Z,12.02
2023-03-17T13:18:53.933Z,13.30
2023-03-17T13:21:26.369Z,12.82
2023-03-17T13:23:59.115Z,11.95
2023-03-17T13:26:56.540Z,13.13
2023-03-17T13:29:26.218Z,10.45
2023-03-17T13:32:10.457Z,15.40
2023-03-17T13:34:46.225Z,11.43
2023-03-17T13:37:18.893Z,8.48
2023-03-17T13:40:10.243Z,9.05
2023-03-17T13:42:50.826Z,11.05
2023-03-17T13:45:24.662Z,8.43
2023-03-17T13:47:55.532Z,10.88
2023-03-17T13:50:24.437Z,8.23
2023-03-17T13:52:56.119Z,11.90
2023-03-17T13:55:38.188Z,11.80
2023-03-17T13:58:24.943Z,10.38
2023-03-17T14:00:58.772Z,9.50
2023-03-17T14:03:32.186Z,10.20
2023-03-17T14:06:00.143Z,8.32
2023-03-17T14:08:30.824Z,7.93
2023-03-17T14:11:00.685Z,8.80
2023-03-17T14:13:31.733Z,9.10
2023-03-17T14:16:03.785Z,7.53
2023-03-17T14:18:34.040Z,9.23
2023-03-17T14:21:08.458Z,9.77
2023-03-17T14:23:37.823Z,7.90
2023-03-17T14:26:07.705Z,7.75
2023-03-17T14:28:35.948Z,8.07
2023-03-17T14:31:04.808Z,9.98
2023-03-17T14:33:34.844Z,8.00
2023-03-17T14:36:04.273Z,8.80
2023-03-17T14:38:33.209Z,9.57
2023-03-17T14:41:01.771Z,7.72
2023-03-17T14:43:29.779Z,11.40
2023-03-17T14:46:01.444Z,9.27
2023-03-17T14:48:31.825Z,10.85
2023-03-17T14:51:05.612Z,9.02
2023-03-17T14:53:34.231Z,12.07
2023-03-17T14:56:03.188Z,8.73
2023-03-17T14:58:32.456Z,10.52
2023-03-17T15:01:04.102Z,10.98
2023-03-17T15:03:34.240Z,15.52
2023-03-17T15:06:09.119Z,9.30
2023-03-17T15:08:45.916Z,8.68
2023-03-17T15:11:19.362Z,9.23
2023-03-17T15:13:47.287Z,7.25
2023-03-17T15:16:21.971Z,8.00
2023-03-17T15:18:51.326Z,7.30
2023-03-17T15:21:25.399Z,7.15
2023-03-17T15:23:53.659Z,9.65
2023-03-17T15:26:23.225Z,14.00
2023-03-17T15:28:51.125Z,8.18
2023-03-17T15:31:23.377Z,7.18
2023-03-17T15:33:52.777Z,8.88
2023-03-17T15:36:31.947Z,9.38
2023-03-17T15:39:01.849Z,8.38
2023-03-17T15:41:29.758Z,9.75
2023-03-17T15:43:57.755Z,13.23
2023-03-17T15:46:27.433Z,10.27
2023-03-17T15:48:55.652Z,10.90
2023-03-17T15:51:23.548Z,14.93
2023-03-17T15:53:51.638Z,13.57
2023-03-17T15:56:21.621Z,13.65
2023-03-17T15:58:52.479Z,10.50
2023-03-17T16:01:20.751Z,8.65
2023-03-17T16:03:48.759Z,10.20
2023-03-17T16:06:18.111Z,8.50
2023-03-17T16:08:46.425Z,9.20
2023-03-17T16:11:16.538Z,13.27
2023-03-17T16:13:46.156Z,8.70
2023-03-17T16:16:21.402Z,12.00
2023-03-17T16:18:50.323Z,11.80
2023-03-17T16:21:19.155Z,7.85
2023-03-17T16:23:47.111Z,7.22
2023-03-17T16:26:16.932Z,8.88
2023-03-17T16:28:47.608Z,8.68
2023-03-17T16:31:19.126Z,7.78
2023-03-17T16:33:47.320Z,6.78
2023-03-17T16:36:16.445Z,8.00
2023-03-17T16:38:44.572Z,10.75
2023-03-17T16:41:20.458Z,8.52
2023-03-17T16:43:55.268Z,8.88
2023-03-17T16:46:23.413Z,8.80
2023-03-17T16:48:51.613Z,9.82
2023-03-17T16:51:19.552Z,12.32
2023-03-17T16:53:47.566Z,10.73
2023-03-17T16:56:17.683Z,9.57
2023-03-17T16:58:45.940Z,8.93
2023-03-17T17:01:16.854Z,9.65
2023-03-17T17:03:44.980Z,7.03
2023-03-17T17:06:14.279Z,8.02
2023-03-17T17:08:43.248Z,10.60
2023-03-17T17:11:12.931Z,10.20
2023-03-17T17:13:41.352Z,8.82
2023-03-17T17:16:12.966Z,8.98
2023-03-17T17:18:42.212Z,11.52
2023-03-17T17:21:10.098Z,9.18
2023-03-17T17:23:37.972Z,7.35
2023-03-17T17:26:06.161Z,8.32
2023-03-17T17:28:34.095Z,6.25
2023-03-17T17:31:02.020Z,7.07
2023-03-17T17:33:29.951Z,9.80
2023-03-17T17:35:59.221Z,7.35
2023-03-17T17:38:27.941Z,7.60
2023-03-17T17:40:56.365Z,7.25
2023-03-17T17:43:24.976Z,6.82
2023-03-17T17:45:53.032Z,7.05
2023-03-17T17:48:22.518Z,8.13
2023-03-17T17:50:50.569Z,11.27
2023-03-17T17:53:19.924Z,8.80
2023-03-17T17:55:48.624Z,4.97
2023-03-17T17:58:17.020Z,6.60
2023-03-17T18:00:45.127Z,6.78
2023-03-17T18:03:13.107Z,8.15
2023-03-17T18:05:41.053Z,10.27
2023-03-17T18:08:08.983Z,8.40
2023-03-17T18:10:38.307Z,7.03
2023-03-17T18:13:06.240Z,8.85
2023-03-17T18:15:34.136Z,9.05
2023-03-17T18:18:02.064Z,5.75
2023-03-17T18:20:30.961Z,9.27
2023-03-17T18:22:59.093Z,6.82
2023-03-17T18:25:27.469Z,9.25
2023-03-17T18:27:56.838Z,6.57
2023-03-17T18:30:26.329Z,8.27
2023-03-17T18:32:55.161Z,7.20
2023-03-17T18:35:24.186Z,6.55
2023-03-17T18:37:52.130Z,8.23
2023-03-17T18:40:20.595Z,7.30
2023-03-17T18:42:48.496Z,7.95
2023-03-17T18:45:17.964Z,6.80
2023-03-17T18:47:45.954Z,5.97
2023-03-17T18:50:14.874Z,8.30
2023-03-17T18:52:43.626Z,7.82
2023-03-17T18:55:12.562Z,9.68
2023-03-17T18:57:42.550Z,6.60
2023-03-17T19:00:13.295Z,6.88
2023-03-17T19:02:42.516Z,5.60
2023-03-17T19:05:11.542Z,5.70
2023-03-17T19:07:40.617Z,8.68
2023-03-17T19:10:09.896Z,7.00
2023-03-17T19:12:38.153Z,7.70
2023-03-17T19:15:07.249Z,5.60
2023-03-17T19:17:35.194Z,5.65
2023-03-17T19:20:04.967Z,6.22
2023-03-17T19:22:32.876Z,7.22
2023-03-17T19:25:01.270Z,8.60
2023-03-17T19:27:29.257Z,7.18
2023-03-17T19:29:57.183Z,7.18
2023-03-17T19:32:25.135Z,7.22
2023-03-17T19:34:53.459Z,7.57
2023-03-17T19:37:22.766Z,6.75
2023-03-17T19:39:50.689Z,6.35
2023-03-17T19:42:18.603Z,9.95
2023-03-17T19:44:46.511Z,18.30
2023-03-17T19:47:14.425Z,7.82
2023-03-17T19:49:42.341Z,9.50
2023-03-17T19:52:10.582Z,8.38
2023-03-17T19:54:43.661Z,10.55
2023-03-17T19:57:12.087Z,7.32
2023-03-17T19:59:40.397Z,8.52
2023-03-17T20:02:08.401Z,6.70
2023-03-17T20:04:37.250Z,6.97
2023-03-17T20:07:05.504Z,6.35
2023-03-17T20:09:33.487Z,5.20
2023-03-17T20:12:02.928Z,7.35
2023-03-17T20:14:30.837Z,11.55
2023-03-17T20:16:58.732Z,7.88
2023-03-17T20:19:26.703Z,8.23
2023-03-17T20:21:54.644Z,9.27
2023-03-17T20:24:22.871Z,6.80
2023-03-17T20:26:51.640Z,7.75
2023-03-17T20:29:21.306Z,7.60
2023-03-17T20:31:49.258Z,6.72
2023-03-17T20:34:17.462Z,6.63
2023-03-17T20:36:46.024Z,8.82
2023-03-17T20:39:19.598Z,6.55
2023-03-17T20:41:48.150Z,12.30
2023-03-17T20:44:16.091Z,9.73
2023-03-17T20:46:45.777Z,6.40
2023-03-17T20:49:14.043Z,5.63
2023-03-17T20:51:41.999Z,5.75
2023-03-17T20:54:10.784Z,7.38
2023-03-17T20:56:39.653Z,8.25
2023-03-17T20:59:09.579Z,4.97
2023-03-17T21:01:38.795Z,7.95
2023-03-17T21:04:09.234Z,6.07
2023-03-17T21:06:37.280Z,6.30
2023-03-17T21:09:05.920Z,6.45
2023-03-17T21:11:33.817Z,6.35
2023-03-17T21:14:03.335Z,10.43
2023-03-17T21:16:31.381Z,8.48
2023-03-17T21:18:59.999Z,7.85
2023-03-17T21:21:29.432Z,8.20
2023-03-17T21:23:58.138Z,9.98
2023-03-17T21:26:26.324Z,9.00
2023-03-17T21:28:56.807Z,5.60
2023-03-17T21:31:24.874Z,7.40
2023-03-17T21:33:52.843Z,6.10
2023-03-17T21:36:21.225Z,8.23
2023-03-17T21:38:50.523Z,9.32
2023-03-17T21:41:22.856Z,8.30
2023-03-17T21:43:50.857Z,7.20
2023-03-17T21:46:18.763Z,6.55
2023-03-17T21:48:46.674Z,8.82
2023-03-17T21:51:14.578Z,11.23
2023-03-17T21:53:42.575Z,9.30
2023-03-17T21:56:12.619Z,6.72
2023-03-17T21:58:40.638Z,7.47
2023-03-17T22:01:09.145Z,8.93
2023-03-17T22:03:39.536Z,9.05
2023-03-17T22:06:08.403Z,10.32
2023-03-17T22:08:36.360Z,12.45
2023-03-17T22:11:07.834Z,19.30
2023-03-17T22:13:37.342Z,19.70
2023-03-17T22:16:05.749Z,11.30
2023-03-17T22:18:33.823Z,13.82
2023-03-17T22:21:01.807Z,13.13
2023-03-17T22:23:30.405Z,11.75
2023-03-17T22:25:58.466Z,14.35
2023-03-17T22:28:26.446Z,14.07
2023-03-17T22:30:56.064Z,16.27
2023-03-17T22:33:23.966Z,11.90
2023-03-17T22:35:51.936Z,16.98
2023-03-17T22:38:19.862Z,11.55
2023-03-17T22:40:47.764Z,20.77
2023-03-17T22:43:15.840Z,15.82
2023-03-17T22:45:43.753Z,15.40
2023-03-17T22:48:13.170Z,15.23
2023-03-17T22:50:43.215Z,11.98
2023-03-17T22:53:11.196Z,14.90
2023-03-17T22:55:39.123Z,10.57
2023-03-17T22:58:06.965Z,12.55
2023-03-17T23:00:36.118Z,13.48
2023-03-17T23:03:04.120Z,7.88
2023-03-17T23:05:33.361Z,12.93
2023-03-17T23:08:01.311Z,8.27
2023-03-17T23:10:29.237Z,9.85
2023-03-17T23:12:57.182Z,10.60
2023-03-17T23:15:25.320Z,10.07
2023-03-17T23:17:53.795Z,10.55
2023-03-17T23:20:21.773Z,7.30
2023-03-17T23:22:51.366Z,12.50
2023-03-17T23:25:19.585Z,10.45
2023-03-17T23:27:47.999Z,8.23
2023-03-17T23:30:17.773Z,8.75
2023-03-17T23:32:45.819Z,11.70
2023-03-17T23:35:14.150Z,6.65
2023-03-17T23:37:42.277Z,10.00
2023-03-17T23:40:15.446Z,10.38
2023-03-17T23:42:43.331Z,12.55
2023-03-17T23:45:11.975Z,10.13
2023-03-17T23:47:39.878Z,9.50
2023-03-17T23:50:08.835Z,8.20
2023-03-17T23:52:37.063Z,11.50
2023-03-17T23:55:05.899Z,7.07
2023-03-17T23:57:36.675Z,9.80
